createdAt,value
2022-09-04T00:00:16.241Z,85.90
2022-09-04T00:06:09.918Z,86.00
2022-09-04T00:11:45.078Z,86.00
2022-09-04T00:18:20.871Z,85.50
2022-09-04T00:24:02.515Z,86.20
2022-09-04T00:30:17.257Z,86.20
2022-09-04T00:36:01.086Z,86.50
2022-09-04T00:41:59.510Z,86.50
2022-09-04T00:47:53.001Z,86.60
2022-09-04T00:53:42.362Z,86.50
2022-09-04T00:59:54.109Z,86.70
2022-09-04T01:05:45.580Z,86.70
2022-09-04T01:11:25.263Z,86.80
2022-09-04T01:17:41.211Z,86.90
2022-09-04T01:23:31.925Z,87.00
2022-09-04T01:29:33.448Z,87.10
2022-09-04T01:35:27.022Z,87.20
2022-09-04T01:41:28.413Z,87.50
2022-09-04T01:47:21.959Z,87.60
2022-09-04T01:53:01.164Z,87.70
2022-09-04T01:58:55.176Z,87.70
2022-09-04T02:04:37.293Z,87.90
2022-09-04T02:10:37.535Z,88.00
2022-09-04T02:16:22.261Z,88.00
2022-09-04T02:22:09.082Z,88.20
2022-09-04T02:28:07.676Z,87.70
2022-09-04T02:34:18.519Z,88.50
2022-09-04T02:40:12.002Z,88.50
2022-09-04T02:46:02.345Z,88.50
2022-09-04T02:52:33.608Z,88.60
2022-09-04T02:58:27.491Z,88.80
2022-09-04T03:04:06.119Z,88.90
2022-09-04T03:10:05.584Z,89.00
2022-09-04T03:15:51.053Z,89.00
2022-09-04T03:21:43.755Z,89.10
2022-09-04T03:27:15.300Z,89.20
2022-09-04T03:33:07.516Z,89.30
2022-09-04T03:39:02.694Z,89.40
2022-09-04T03:44:44.332Z,89.50
2022-09-04T03:50:35.524Z,89.60
2022-09-04T03:56:23.272Z,89.60
2022-09-04T04:02:23.060Z,88.80
2022-09-04T04:08:34.822Z,89.70
2022-09-04T04:14:39.220Z,89.00
2022-09-04T04:20:44.591Z,89.90
2022-09-04T04:26:26.341Z,90.00
2022-09-04T04:32:41.555Z,90.00
2022-09-04T04:38:37.035Z,90.00
2022-09-04T04:44:16.543Z,90.10
2022-09-04T04:50:22.004Z,90.20
2022-09-04T04:56:19.306Z,90.20
2022-09-04T05:02:25.421Z,90.30
2022-09-04T05:08:22.734Z,90.40
2022-09-04T05:13:59.572Z,90.40
2022-09-04T05:19:47.794Z,90.50
2022-09-04T05:25:59.812Z,90.50
2022-09-04T05:31:42.145Z,90.70
2022-09-04T05:38:13.143Z,90.70
2022-09-04T05:43:59.032Z,91.10
2022-09-04T05:49:49.591Z,90.80
2022-09-04T05:55:32.424Z,90.80
2022-09-04T06:01:36.202Z,90.90
2022-09-04T06:07:12.528Z,90.80
2022-09-04T06:13:21.390Z,90.80
2022-09-04T06:19:31.044Z,90.90
2022-09-04T06:25:16.644Z,90.90
2022-09-04T06:31:03.197Z,91.00
2022-09-04T06:36:46.772Z,91.10
2022-09-04T06:43:03.797Z,91.10
2022-09-04T06:48:49.668Z,91.10
2022-09-04T06:54:39.683Z,91.20
2022-09-04T07:00:18.532Z,91.20
2022-09-04T07:06:15.013Z,91.20
2022-09-04T07:12:16.983Z,91.10
2022-09-04T07:18:15.412Z,91.10
2022-09-04T07:24:09.054Z,91.10
2022-09-04T07:29:55.247Z,91.00
2022-09-04T07:35:38.543Z,90.90
2022-09-04T07:41:31.369Z,90.80
2022-09-04T07:47:22.291Z,90.60
2022-09-04T07:53:19.837Z,90.40
2022-09-04T07:58:49.485Z,90.30
2022-09-04T08:04:58.737Z,90.10
2022-09-04T08:10:47.554Z,90.00
2022-09-04T08:16:28.652Z,89.80
2022-09-04T08:21:57.152Z,89.60
2022-09-04T08:27:44.543Z,89.10
2022-09-04T08:34:00.126Z,89.00
2022-09-04T08:39:48.982Z,88.60
2022-09-04T08:46:04.150Z,87.80
2022-09-04T08:51:57.219Z,87.60
2022-09-04T08:57:40.529Z,87.30
2022-09-04T09:03:45.403Z,85.90
2022-09-04T09:09:31.188Z,86.60
2022-09-04T09:15:14.093Z,86.20
2022-09-04T09:21:23.734Z,85.60
2022-09-04T09:27:07.453Z,85.00
2022-09-04T09:33:35.583Z,84.50
2022-09-04T09:39:18.310Z,83.90
2022-09-04T09:45:11.422Z,83.60
2022-09-04T09:51:30.145Z,82.40
2022-09-04T09:57:14.942Z,82.40
2022-09-04T10:03:24.545Z,82.00
2022-09-04T10:09:47.931Z,81.20
2022-09-04T10:16:06.789Z,80.90
2022-09-04T10:22:43.981Z,80.30
2022-09-04T10:28:14.372Z,78.20
2022-09-04T10:34:24.201Z,77.20
2022-09-04T10:40:31.433Z,76.30
2022-09-04T10:46:22.711Z,76.00
2022-09-04T10:52:00.269Z,75.70
2022-09-04T10:57:42.934Z,75.10
2022-09-04T11:03:22.756Z,73.80
2022-09-04T11:09:31.028Z,74.30
2022-09-04T11:15:26.807Z,74.00
2022-09-04T11:21:32.946Z,73.00
2022-09-04T11:27:05.968Z,72.20
2022-09-04T11:33:24.735Z,71.70
2022-09-04T11:39:48.301Z,72.20
2022-09-04T11:45:53.565Z,69.50
2022-09-04T11:52:37.055Z,70.90
2022-09-04T11:58:38.029Z,71.50
2022-09-04T12:05:04.979Z,72.30
2022-09-04T12:11:21.263Z,71.30
2022-09-04T12:17:47.602Z,70.70
2022-09-04T12:23:55.937Z,70.40
2022-09-04T12:29:50.449Z,68.90
2022-09-04T12:35:48.365Z,68.80
2022-09-04T12:41:25.661Z,68.40
2022-09-04T12:47:14.086Z,68.10
2022-09-04T12:53:01.093Z,67.80
2022-09-04T12:58:59.451Z,66.60
2022-09-04T13:04:27.592Z,65.80
2022-09-04T13:10:32.825Z,65.90
2022-09-04T13:16:36.733Z,66.00
2022-09-04T13:22:26.587Z,66.50
2022-09-04T13:28:04.202Z,66.30
2022-09-04T13:34:13.479Z,66.40
2022-09-04T13:40:12.519Z,66.20
2022-09-04T13:45:55.617Z,64.80
2022-09-04T13:51:36.128Z,62.50
2022-09-04T13:57:14.974Z,60.30
2022-09-04T14:02:44.951Z,60.50
2022-09-04T14:08:21.233Z,58.20
2022-09-04T14:14:41.365Z,59.90
2022-09-04T14:20:44.117Z,52.60
2022-09-04T14:26:24.583Z,47.10
2022-09-04T14:32:10.457Z,43.80
2022-09-04T14:37:54.286Z,42.40
2022-09-04T14:43:46.976Z,39.80
2022-09-04T14:49:23.563Z,40.00
2022-09-04T14:54:58.119Z,38.60
2022-09-04T15:00:29.333Z,39.20
2022-09-04T15:06:05.664Z,43.00
2022-09-04T15:11:34.975Z,45.40
2022-09-04T15:17:12.938Z,46.70
2022-09-04T15:23:13.259Z,47.60
2022-09-04T15:28:50.383Z,48.50
2022-09-04T15:34:26.609Z,49.40
2022-09-04T15:40:16.134Z,49.40
2022-09-04T15:45:48.517Z,49.70
2022-09-04T15:51:43.477Z,50.30
2022-09-04T15:57:36.043Z,50.80
2022-09-04T16:03:27.161Z,51.30
2022-09-04T16:09:12.181Z,51.60
2022-09-04T16:14:53.744Z,51.90
2022-09-04T16:20:35.388Z,52.00
2022-09-04T16:26:18.210Z,52.30
2022-09-04T16:31:54.414Z,52.00
2022-09-04T16:37:40.067Z,52.40
2022-09-04T16:43:39.124Z,53.60
2022-09-04T16:49:24.016Z,53.10
2022-09-04T16:55:06.487Z,53.30
2022-09-04T17:01:14.376Z,52.90
2022-09-04T17:07:02.519Z,53.60
2022-09-04T17:12:53.435Z,53.90
2022-09-04T17:18:24.829Z,54.10
2022-09-04T17:29:00.494Z,54.30
2022-09-04T17:30:06.871Z,54.10
2022-09-04T17:40:44.603Z,54.70
2022-09-04T17:42:09.256Z,54.90
2022-09-04T17:47:43.822Z,55.10
2022-09-04T17:53:22.971Z,55.40
2022-09-04T17:59:28.794Z,55.60
2022-09-04T18:05:18.937Z,55.90
2022-09-04T18:10:53.942Z,56.30
2022-09-04T18:17:11.203Z,56.40
2022-09-04T18:22:44.978Z,56.70
2022-09-04T18:28:29.413Z,56.90
2022-09-04T18:37:18.211Z,57.20
2022-09-04T18:40:40.701Z,57.50
2022-09-04T18:50:38.514Z,57.80
2022-09-04T18:52:20.474Z,58.20
2022-09-04T18:57:57.007Z,58.60
2022-09-04T19:03:46.102Z,59.00
2022-09-04T19:09:25.772Z,59.20
2022-09-04T19:15:02.088Z,59.80
2022-09-04T19:20:48.321Z,60.00
2022-09-04T19:26:36.040Z,60.10
2022-09-04T19:32:14.561Z,60.90
2022-09-04T19:42:39.318Z,61.50
2022-09-04T19:46:14.129Z,61.90
2022-09-04T19:53:34.343Z,62.40
2022-09-04T19:57:16.112Z,62.40
2022-09-04T20:02:44.785Z,63.30
2022-09-04T20:08:32.267Z,63.60
2022-09-04T20:14:15.013Z,64.10
2022-09-04T20:19:59.420Z,64.50
2022-09-04T20:25:34.782Z,64.60
2022-09-04T20:31:36.254Z,65.40
2022-09-04T20:37:33.082Z,65.70
2022-09-04T20:43:04.196Z,66.10
2022-09-04T20:52:50.302Z,66.00
2022-09-04T20:54:59.543Z,67.20
2022-09-04T21:03:18.180Z,67.20
2022-09-04T21:06:38.372Z,67.80
2022-09-04T21:12:15.772Z,68.30
2022-09-04T21:18:29.545Z,68.60
2022-09-04T21:24:22.160Z,68.90
2022-09-04T21:30:08.741Z,69.10
2022-09-04T21:35:51.105Z,69.60
2022-09-04T21:42:01.821Z,69.80
2022-09-04T21:48:42.259Z,70.30
2022-09-04T21:56:38.128Z,70.60
2022-09-04T22:02:36.671Z,70.90
2022-09-04T22:09:30.424Z,71.20
2022-09-04T22:13:39.418Z,71.40
2022-09-04T22:19:16.683Z,71.80
2022-09-04T22:25:18.217Z,72.10
2022-09-04T22:30:54.855Z,72.30
2022-09-04T22:36:28.290Z,72.70
2022-09-04T22:42:07.886Z,72.80
2022-09-04T22:48:11.753Z,73.10
2022-09-04T22:54:17.931Z,73.20
2022-09-04T23:00:19.641Z,73.40
2022-09-04T23:06:27.400Z,73.60
2022-09-04T23:13:52.956Z,74.00
2022-09-04T23:23:09.406Z,74.10
2022-09-04T23:26:44.825Z,74.30
2022-09-04T23:31:11.118Z,73.80
2022-09-04T23:36:47.960Z,74.70
2022-09-04T23:42:29.537Z,75.00
2022-09-04T23:48:12.453Z,75.30
2022-09-04T23:54:25.780Z,74.70
